createdAt,value
2019-02-28T00:00:43.455Z,81.71
2019-02-28T00:01:46.468Z,81.60
2019-02-28T00:02:43.446Z,81.75
2019-02-28T00:03:43.423Z,80.91
2019-02-28T00:04:43.415Z,81.33
2019-02-28T00:05:43.399Z,81.47
2019-02-28T00:06:44.253Z,81.85
2019-02-28T00:07:43.411Z,82.79
2019-02-28T00:08:43.367Z,83.25
2019-02-28T00:09:43.357Z,82.31
2019-02-28T00:10:43.356Z,82.82
2019-02-28T00:11:43.336Z,83.04
2019-02-28T00:12:45.228Z,83.35
2019-02-28T00:13:43.340Z,83.04
2019-02-28T00:14:43.300Z,83.76
2019-02-28T00:15:43.289Z,83.73
2019-02-28T00:16:43.305Z,83.76
2019-02-28T00:17:43.684Z,83.31
2019-02-28T00:18:43.256Z,82.27
2019-02-28T00:19:43.277Z,83.20
2019-02-28T00:20:43.236Z,82.48
2019-02-28T00:21:43.233Z,81.96
2019-02-28T00:22:43.215Z,81.43
2019-02-28T00:23:43.199Z,81.75
2019-02-28T00:24:43.188Z,82.48
2019-02-28T00:25:43.217Z,83.00
2019-02-28T00:26:47.650Z,82.17
2019-02-28T00:27:43.156Z,81.54
2019-02-28T00:28:43.156Z,82.54
2019-02-28T00:29:43.132Z,81.85
2019-02-28T00:30:43.123Z,81.75
2019-02-28T00:31:43.122Z,81.75
2019-02-28T00:32:43.099Z,81.85
2019-02-28T00:33:43.090Z,81.23
2019-02-28T00:34:43.086Z,81.43
2019-02-28T00:35:44.753Z,81.96
2019-02-28T00:36:43.095Z,81.54
2019-02-28T00:37:43.043Z,81.54
2019-02-28T00:38:43.033Z,81.58
2019-02-28T00:39:43.022Z,81.85
2019-02-28T00:40:43.021Z,81.99
2019-02-28T00:41:44.502Z,81.68
2019-02-28T00:42:43.020Z,81.89
2019-02-28T00:43:42.976Z,82.51
2019-02-28T00:44:42.970Z,81.99
2019-02-28T00:45:42.955Z,82.62
2019-02-28T00:46:45.206Z,82.41
2019-02-28T00:47:42.931Z,83.25
2019-02-28T00:48:42.964Z,84.18
2019-02-28T00:49:42.910Z,83.39
2019-02-28T00:50:42.900Z,82.97
2019-02-28T00:51:42.887Z,83.76
2019-02-28T00:52:42.888Z,83.45
2019-02-28T00:53:42.866Z,83.35
2019-02-28T00:54:44.342Z,83.91
2019-02-28T00:55:45.977Z,83.45
2019-02-28T00:56:42.833Z,83.39
2019-02-28T00:57:42.822Z,83.91
2019-02-28T00:58:42.838Z,84.01
2019-02-28T00:59:42.813Z,84.01
2019-02-28T01:00:42.826Z,83.70
2019-02-28T01:01:43.125Z,83.39
2019-02-28T01:02:42.766Z,83.70
2019-02-28T01:03:42.760Z,83.70
2019-02-28T01:04:42.754Z,83.59
2019-02-28T01:05:42.733Z,83.59
2019-02-28T01:06:42.761Z,83.59
2019-02-28T01:07:42.712Z,83.49
2019-02-28T01:08:45.583Z,83.66
2019-02-28T01:09:42.689Z,83.70
2019-02-28T01:10:42.689Z,83.80
2019-02-28T01:11:44.771Z,83.70
2019-02-28T01:12:42.655Z,84.01
2019-02-28T01:13:42.644Z,83.76
2019-02-28T01:14:42.633Z,83.35
2019-02-28T01:15:44.860Z,83.39
2019-02-28T01:16:42.616Z,84.33
2019-02-28T01:17:42.614Z,84.22
2019-02-28T01:18:42.590Z,84.33
2019-02-28T01:19:42.578Z,83.91
2019-02-28T01:20:42.567Z,83.91
2019-02-28T01:21:42.567Z,84.12
2019-02-28T01:22:42.546Z,84.43
2019-02-28T01:23:42.549Z,83.70
2019-02-28T01:24:42.529Z,84.33
2019-02-28T01:25:42.513Z,83.80
2019-02-28T01:26:43.314Z,83.91
2019-02-28T01:27:42.491Z,84.12
2019-02-28T01:28:42.479Z,84.33
2019-02-28T01:29:42.498Z,84.43
2019-02-28T01:30:42.456Z,84.12
2019-02-28T01:31:43.258Z,83.87
2019-02-28T01:32:42.434Z,84.28
2019-02-28T01:33:42.423Z,83.97
2019-02-28T01:34:42.426Z,83.80
2019-02-28T01:35:42.408Z,83.66
2019-02-28T01:36:42.389Z,84.18
2019-02-28T01:37:42.376Z,83.87
2019-02-28T01:38:42.365Z,84.28
2019-02-28T01:39:42.395Z,83.56
2019-02-28T01:40:42.345Z,83.87
2019-02-28T01:41:45.120Z,83.25
2019-02-28T01:42:42.324Z,83.66
2019-02-28T01:43:42.315Z,83.10
2019-02-28T01:44:42.300Z,83.00
2019-02-28T01:45:44.225Z,82.96
2019-02-28T01:46:42.279Z,83.00
2019-02-28T01:47:42.274Z,81.65
2019-02-28T01:48:42.257Z,82.48
2019-02-28T01:49:42.247Z,81.85
2019-02-28T01:50:42.267Z,81.81
2019-02-28T01:51:42.225Z,82.13
2019-02-28T01:52:45.677Z,82.96
2019-02-28T01:53:42.209Z,82.86
2019-02-28T01:54:42.193Z,82.75
2019-02-28T01:55:42.176Z,82.03
2019-02-28T01:56:42.180Z,81.71
2019-02-28T01:57:44.002Z,81.50
2019-02-28T01:58:42.145Z,82.86
2019-02-28T01:59:42.158Z,82.51
2019-02-28T02:00:42.122Z,81.67
2019-02-28T02:01:42.112Z,81.81
2019-02-28T02:02:42.112Z,81.77
2019-02-28T02:03:42.091Z,81.67
2019-02-28T02:04:43.164Z,81.57
2019-02-28T02:05:42.072Z,81.77
2019-02-28T02:06:42.056Z,81.77
2019-02-28T02:07:42.080Z,81.46
2019-02-28T02:08:42.034Z,81.57
2019-02-28T02:09:42.625Z,81.98
2019-02-28T02:10:42.012Z,81.88
2019-02-28T02:11:42.012Z,81.63
2019-02-28T02:12:41.993Z,82.05
2019-02-28T02:13:42.004Z,81.74
2019-02-28T02:14:44.655Z,81.84
2019-02-28T02:15:41.956Z,81.74
2019-02-28T02:16:41.945Z,81.74
2019-02-28T02:17:41.951Z,82.46
2019-02-28T02:18:43.412Z,83.26
2019-02-28T02:19:41.943Z,81.98
2019-02-28T02:20:41.906Z,83.74
2019-02-28T02:21:41.891Z,81.63
2019-02-28T02:22:44.489Z,81.28
2019-02-28T02:23:41.875Z,80.10
2019-02-28T02:24:41.859Z,81.04
2019-02-28T02:25:41.862Z,81.56
2019-02-28T02:26:42.327Z,80.68
2019-02-28T02:27:41.824Z,80.47
2019-02-28T02:28:41.812Z,81.10
2019-02-28T02:29:41.820Z,82.24
2019-02-28T02:30:41.789Z,81.72
2019-02-28T02:31:43.609Z,81.51
2019-02-28T02:32:41.774Z,81.51
2019-02-28T02:33:41.761Z,81.51
2019-02-28T02:34:41.758Z,80.85
2019-02-28T02:35:42.584Z,81.51
2019-02-28T02:36:41.725Z,81.62
2019-02-28T02:37:41.715Z,82.76
2019-02-28T02:38:41.887Z,82.24
2019-02-28T02:39:41.691Z,82.59
2019-02-28T02:40:41.680Z,82.55
2019-02-28T02:41:41.698Z,83.01
2019-02-28T02:42:47.470Z,82.90
2019-02-28T02:43:42.648Z,82.70
2019-02-28T02:44:41.637Z,83.46
2019-02-28T02:45:43.362Z,83.46
2019-02-28T02:46:41.613Z,83.87
2019-02-28T02:47:41.636Z,84.12
2019-02-28T02:48:42.309Z,84.64
2019-02-28T02:49:41.586Z,85.22
2019-02-28T02:50:41.568Z,85.88
2019-02-28T02:51:49.088Z,85.78
2019-02-28T02:52:42.602Z,85.22
2019-02-28T02:53:42.011Z,84.39
2019-02-28T02:54:41.524Z,85.26
2019-02-28T02:55:41.514Z,86.41
2019-02-28T02:56:42.196Z,85.57
2019-02-28T02:57:41.488Z,84.95
2019-02-28T02:58:41.492Z,86.47
2019-02-28T02:59:41.489Z,86.61
2019-02-28T03:00:41.458Z,85.78
2019-02-28T03:01:41.446Z,86.36
2019-02-28T03:02:41.436Z,86.57
2019-02-28T03:03:44.231Z,86.19
2019-02-28T03:04:41.414Z,86.30
2019-02-28T03:05:41.419Z,87.24
2019-02-28T03:06:41.391Z,86.47
2019-02-28T03:07:41.380Z,85.43
2019-02-28T03:08:41.367Z,85.33
2019-02-28T03:09:43.454Z,85.19
2019-02-28T03:10:41.347Z,85.53
2019-02-28T03:11:41.344Z,85.22
2019-02-28T03:12:41.322Z,85.02
2019-02-28T03:13:43.703Z,85.43
2019-02-28T03:14:41.301Z,85.64
2019-02-28T03:15:41.330Z,84.91
2019-02-28T03:16:41.279Z,86.26
2019-02-28T03:17:46.494Z,88.02
2019-02-28T03:18:42.263Z,87.88
2019-02-28T03:19:41.244Z,86.18
2019-02-28T03:20:42.488Z,85.77
2019-02-28T03:21:41.240Z,86.29
2019-02-28T03:22:41.213Z,86.15
2019-02-28T03:23:41.226Z,85.27
2019-02-28T03:24:41.190Z,84.13
2019-02-28T03:25:41.193Z,83.83
2019-02-28T03:26:42.045Z,83.83
2019-02-28T03:27:41.156Z,84.34
2019-02-28T03:28:41.147Z,84.65
2019-02-28T03:29:43.819Z,84.34
2019-02-28T03:30:41.145Z,83.83
2019-02-28T03:31:41.115Z,83.51
2019-02-28T03:32:42.701Z,83.31
2019-02-28T03:33:41.105Z,83.83
2019-02-28T03:34:41.084Z,83.45
2019-02-28T03:35:43.897Z,85.31
2019-02-28T03:36:41.070Z,85.11
2019-02-28T03:37:41.047Z,84.59
2019-02-28T03:38:48.560Z,85.73
2019-02-28T03:39:42.029Z,85.31
2019-02-28T03:40:41.274Z,85.52
2019-02-28T03:41:41.009Z,85.17
2019-02-28T03:42:41.005Z,85.17
2019-02-28T03:43:43.946Z,85.58
2019-02-28T03:44:40.982Z,85.44
2019-02-28T03:45:40.965Z,84.20
2019-02-28T03:46:46.407Z,84.30
2019-02-28T03:47:41.940Z,84.51
2019-02-28T03:48:40.926Z,84.72
2019-02-28T03:49:48.553Z,84.61
2019-02-28T03:50:41.903Z,84.96
2019-02-28T03:51:40.900Z,85.17
2019-02-28T03:52:43.957Z,84.75
2019-02-28T03:53:40.877Z,85.17
2019-02-28T03:54:40.877Z,86.31
2019-02-28T03:55:41.641Z,86.31
2019-02-28T03:56:40.851Z,86.93
2019-02-28T03:57:40.825Z,86.52
2019-02-28T03:58:42.886Z,85.79
2019-02-28T03:59:40.822Z,85.27
2019-02-28T04:00:40.800Z,85.27
2019-02-28T04:01:44.573Z,87.97
2019-02-28T04:02:40.772Z,86.93
2019-02-28T04:03:40.759Z,86.21
2019-02-28T04:04:48.793Z,85.69
2019-02-28T04:05:41.754Z,86.25
2019-02-28T04:06:41.055Z,86.04
2019-02-28T04:07:40.727Z,85.94
2019-02-28T04:08:40.712Z,86.60
2019-02-28T04:09:44.138Z,86.39
2019-02-28T04:10:40.680Z,86.70
2019-02-28T04:11:40.705Z,87.95
2019-02-28T04:12:44.921Z,87.74
2019-02-28T04:13:41.647Z,88.05
2019-02-28T04:14:40.643Z,88.15
2019-02-28T04:15:49.825Z,88.36
2019-02-28T04:16:41.645Z,88.36
2019-02-28T04:17:40.636Z,88.78
2019-02-28T04:18:46.148Z,88.88
2019-02-28T04:19:41.580Z,89.19
2019-02-28T04:20:40.570Z,89.56
2019-02-28T04:21:46.171Z,88.18
2019-02-28T04:22:41.563Z,87.24
2019-02-28T04:23:40.544Z,86.62
2019-02-28T04:24:40.545Z,86.31
2019-02-28T04:25:40.547Z,86.25
2019-02-28T04:26:40.506Z,86.97
2019-02-28T04:27:41.801Z,87.04
2019-02-28T04:28:40.539Z,86.25
2019-02-28T04:29:40.485Z,86.45
2019-02-28T04:30:43.857Z,87.90
2019-02-28T04:31:40.453Z,86.66
2019-02-28T04:32:40.456Z,88.32
2019-02-28T04:33:40.468Z,87.97
2019-02-28T04:34:40.415Z,87.80
2019-02-28T04:35:40.410Z,86.62
2019-02-28T04:36:40.415Z,88.01
2019-02-28T04:37:44.595Z,87.07
2019-02-28T04:38:41.383Z,86.70
2019-02-28T04:39:40.368Z,88.36
2019-02-28T04:40:40.373Z,88.73
2019-02-28T04:41:40.355Z,88.21
2019-02-28T04:42:40.327Z,88.05
2019-02-28T04:43:41.636Z,87.84
2019-02-28T04:44:40.317Z,88.05
2019-02-28T04:45:40.293Z,88.32
2019-02-28T04:46:40.295Z,88.01
2019-02-28T04:47:41.421Z,87.80
2019-02-28T04:48:40.264Z,88.26
2019-02-28T04:49:40.263Z,87.63
2019-02-28T04:50:40.239Z,88.78
2019-02-28T04:51:41.059Z,87.84
2019-02-28T04:52:46.712Z,88.46
2019-02-28T04:53:41.212Z,88.98
2019-02-28T04:54:40.195Z,88.36
2019-02-28T04:55:40.200Z,88.61
2019-02-28T04:56:42.343Z,88.82
2019-02-28T04:57:41.159Z,89.06
2019-02-28T04:58:40.150Z,89.69
2019-02-28T04:59:40.150Z,90.27
2019-02-28T05:00:40.128Z,90.48
2019-02-28T05:01:40.118Z,90.37
2019-02-28T05:02:40.118Z,89.03
2019-02-28T05:03:40.096Z,89.65
2019-02-28T05:04:40.084Z,89.58
2019-02-28T05:05:40.084Z,89.48
2019-02-28T05:06:40.068Z,89.37
2019-02-28T05:07:40.074Z,89.06
2019-02-28T05:08:40.040Z,89.42
2019-02-28T05:09:40.037Z,89.52
2019-02-28T05:10:40.025Z,89.21
2019-02-28T05:11:40.015Z,90.81
2019-02-28T05:12:41.031Z,90.50
2019-02-28T05:13:41.146Z,90.91
2019-02-28T05:14:39.985Z,90.81
2019-02-28T05:15:41.099Z,90.85
2019-02-28T05:16:39.949Z,91.68
2019-02-28T05:17:39.956Z,91.68
2019-02-28T05:18:39.931Z,91.78
2019-02-28T05:19:39.945Z,91.16
2019-02-28T05:20:45.184Z,91.72
2019-02-28T05:21:40.896Z,91.41
2019-02-28T05:22:39.884Z,92.76
2019-02-28T05:23:39.879Z,93.29
2019-02-28T05:24:42.593Z,92.86
2019-02-28T05:25:39.865Z,92.76
2019-02-28T05:26:39.843Z,92.86
2019-02-28T05:27:39.831Z,93.33
2019-02-28T05:28:41.170Z,93.33
2019-02-28T05:29:39.819Z,93.85
2019-02-28T05:30:41.499Z,93.54
2019-02-28T05:31:39.785Z,92.80
2019-02-28T05:32:39.785Z,93.12
2019-02-28T05:33:41.914Z,92.85
2019-02-28T05:34:39.750Z,92.64
2019-02-28T05:35:39.784Z,93.37
2019-02-28T05:36:39.728Z,94.10
2019-02-28T05:37:39.719Z,94.31
2019-02-28T05:38:39.708Z,94.93
2019-02-28T05:39:39.694Z,94.82
2019-02-28T05:40:41.333Z,95.89
2019-02-28T05:41:39.714Z,95.57
2019-02-28T05:42:39.664Z,95.05
2019-02-28T05:43:39.650Z,94.53
2019-02-28T05:44:40.432Z,93.18
2019-02-28T05:45:39.635Z,92.86
2019-02-28T05:46:39.625Z,92.66
2019-02-28T05:47:46.248Z,91.62
2019-02-28T05:48:40.595Z,91.46
2019-02-28T05:49:40.745Z,92.60
2019-02-28T05:50:39.579Z,93.23
2019-02-28T05:51:39.565Z,94.26
2019-02-28T05:52:39.558Z,93.80
2019-02-28T05:53:41.368Z,93.85
2019-02-28T05:54:39.529Z,94.06
2019-02-28T05:55:39.518Z,94.16
2019-02-28T05:56:39.507Z,93.95
2019-02-28T05:57:43.292Z,92.80
2019-02-28T05:58:40.517Z,92.91
2019-02-28T05:59:39.479Z,92.85
2019-02-28T06:00:39.461Z,93.16
2019-02-28T06:01:39.452Z,92.74
2019-02-28T06:02:39.447Z,92.85
2019-02-28T06:03:39.427Z,93.99
2019-02-28T06:04:39.451Z,94.62
2019-02-28T06:05:39.418Z,95.62
2019-02-28T06:06:39.396Z,95.40
2019-02-28T06:07:39.389Z,94.89
2019-02-28T06:08:40.020Z,94.68
2019-02-28T06:09:39.359Z,94.26
2019-02-28T06:10:39.402Z,94.06
2019-02-28T06:11:39.345Z,93.64
2019-02-28T06:12:40.396Z,93.85
2019-02-28T06:13:39.327Z,92.70
2019-02-28T06:14:39.309Z,93.33
2019-02-28T06:15:39.298Z,94.06
2019-02-28T06:16:39.305Z,94.82
2019-02-28T06:17:39.280Z,94.68
2019-02-28T06:18:39.269Z,94.68
2019-02-28T06:19:40.277Z,94.68
2019-02-28T06:20:39.260Z,94.57
2019-02-28T06:21:39.227Z,94.74
2019-02-28T06:22:39.215Z,94.95
2019-02-28T06:23:40.780Z,94.95
2019-02-28T06:24:39.196Z,94.84
2019-02-28T06:25:39.192Z,94.01
2019-02-28T06:26:39.197Z,93.66
2019-02-28T06:27:41.859Z,93.49
2019-02-28T06:28:39.158Z,94.01
2019-02-28T06:29:39.149Z,94.01
2019-02-28T06:30:41.550Z,94.18
2019-02-28T06:31:39.116Z,93.35
2019-02-28T06:32:39.119Z,93.03
2019-02-28T06:33:39.110Z,93.49
2019-02-28T06:34:39.494Z,92.93
2019-02-28T06:35:39.081Z,92.72
2019-02-28T06:36:39.061Z,92.86
2019-02-28T06:37:39.218Z,93.49
2019-02-28T06:38:39.066Z,93.49
2019-02-28T06:39:39.040Z,94.01
2019-02-28T06:40:39.018Z,93.70
2019-02-28T06:41:39.954Z,93.18
2019-02-28T06:42:38.995Z,94.01
2019-02-28T06:43:38.983Z,93.80
2019-02-28T06:44:38.985Z,94.53
2019-02-28T06:45:38.964Z,93.70
2019-02-28T06:46:39.813Z,93.70
2019-02-28T06:47:39.103Z,93.80
2019-02-28T06:48:38.927Z,93.91
2019-02-28T06:49:41.921Z,94.18
2019-02-28T06:50:38.905Z,93.76
2019-02-28T06:51:38.894Z,93.45
2019-02-28T06:52:38.887Z,93.76
2019-02-28T06:53:38.877Z,92.68
2019-02-28T06:54:39.854Z,92.99
2019-02-28T06:55:38.880Z,92.78
2019-02-28T06:56:38.839Z,92.22
2019-02-28T06:57:38.828Z,92.43
2019-02-28T06:58:38.826Z,91.39
2019-02-28T06:59:39.172Z,91.49
2019-02-28T07:00:38.795Z,91.60
2019-02-28T07:01:38.795Z,91.18
2019-02-28T07:02:38.772Z,91.60
2019-02-28T07:03:39.804Z,91.70
2019-02-28T07:04:38.752Z,91.91
2019-02-28T07:05:38.770Z,92.43
2019-02-28T07:06:38.728Z,92.63
2019-02-28T07:07:38.717Z,92.94
2019-02-28T07:08:38.705Z,92.63
2019-02-28T07:09:38.695Z,92.07
2019-02-28T07:10:38.686Z,91.97
2019-02-28T07:11:38.706Z,91.93
2019-02-28T07:12:38.663Z,91.37
2019-02-28T07:13:39.966Z,90.75
2019-02-28T07:14:38.638Z,90.29
2019-02-28T07:15:38.629Z,89.46
2019-02-28T07:16:38.622Z,89.31
2019-02-28T07:17:38.632Z,88.59
2019-02-28T07:18:38.609Z,88.18
2019-02-28T07:19:38.584Z,88.13
2019-02-28T07:20:38.575Z,88.03
2019-02-28T07:21:42.994Z,87.82
2019-02-28T07:22:40.137Z,87.93
2019-02-28T07:23:38.573Z,88.24
2019-02-28T07:24:38.530Z,87.93
2019-02-28T07:25:38.518Z,87.93
2019-02-28T07:26:38.506Z,88.13
2019-02-28T07:27:38.495Z,87.88
2019-02-28T07:28:38.484Z,88.09
2019-02-28T07:29:38.493Z,88.16
2019-02-28T07:30:38.460Z,87.64
2019-02-28T07:31:38.458Z,87.39
2019-02-28T07:32:38.438Z,86.88
2019-02-28T07:33:41.241Z,86.42
2019-02-28T07:34:39.420Z,86.11
2019-02-28T07:35:38.412Z,85.70
2019-02-28T07:36:38.399Z,85.24
2019-02-28T07:37:38.383Z,84.42
2019-02-28T07:38:38.371Z,84.17
2019-02-28T07:39:40.414Z,84.23
2019-02-28T07:40:38.349Z,83.31
2019-02-28T07:41:38.343Z,83.20
2019-02-28T07:42:38.588Z,82.89
2019-02-28T07:43:38.322Z,83.17
2019-02-28T07:44:38.311Z,82.96
2019-02-28T07:45:38.314Z,82.96
2019-02-28T07:46:38.549Z,82.24
2019-02-28T07:47:38.307Z,81.99
2019-02-28T07:48:38.263Z,82.65
2019-02-28T07:49:38.248Z,81.89
2019-02-28T07:50:38.237Z,81.93
2019-02-28T07:51:38.231Z,82.24
2019-02-28T07:52:38.217Z,81.41
2019-02-28T07:53:40.912Z,81.89
2019-02-28T07:54:38.196Z,81.79
2019-02-28T07:55:38.181Z,81.68
2019-02-28T07:56:42.832Z,81.58
2019-02-28T07:57:38.156Z,82.14
2019-02-28T07:58:38.159Z,82.40
2019-02-28T07:59:42.422Z,81.07
2019-02-28T08:00:38.126Z,81.79
2019-02-28T08:01:38.117Z,80.86
2019-02-28T08:02:39.228Z,80.86
2019-02-28T08:03:38.116Z,80.82
2019-02-28T08:04:38.080Z,81.03
2019-02-28T08:05:38.076Z,80.82
2019-02-28T08:06:39.207Z,80.82
2019-02-28T08:07:38.056Z,81.03
2019-02-28T08:08:38.036Z,80.93
2019-02-28T08:09:40.564Z,81.09
2019-02-28T08:10:38.019Z,80.93
2019-02-28T08:11:38.009Z,80.82
2019-02-28T08:12:38.001Z,80.99
2019-02-28T08:13:38.687Z,80.68
2019-02-28T08:14:37.969Z,80.37
2019-02-28T08:15:37.959Z,80.89
2019-02-28T08:16:37.948Z,80.47
2019-02-28T08:17:40.607Z,80.16
2019-02-28T08:18:38.934Z,80.27
2019-02-28T08:19:37.911Z,79.75
2019-02-28T08:20:37.922Z,79.72
2019-02-28T08:21:43.972Z,79.82
2019-02-28T08:22:38.877Z,79.61
2019-02-28T08:23:37.875Z,79.86
2019-02-28T08:24:37.855Z,79.72
2019-02-28T08:25:39.764Z,79.93
2019-02-28T08:26:37.865Z,80.02
2019-02-28T08:27:37.829Z,80.02
2019-02-28T08:28:37.812Z,79.93
2019-02-28T08:29:37.808Z,79.61
2019-02-28T08:30:37.788Z,79.37
2019-02-28T08:31:37.776Z,79.06
2019-02-28T08:32:42.738Z,78.65
2019-02-28T08:33:38.761Z,78.51
2019-02-28T08:34:37.746Z,78.51
2019-02-28T08:35:37.736Z,78.00
2019-02-28T08:36:37.717Z,78.61
2019-02-28T08:37:37.708Z,77.69
2019-02-28T08:38:37.729Z,78.47
2019-02-28T08:39:41.145Z,78.58
2019-02-28T08:40:37.673Z,77.65
2019-02-28T08:41:37.670Z,78.20
2019-02-28T08:42:39.677Z,77.96
2019-02-28T08:43:37.640Z,78.17
2019-02-28T08:44:37.659Z,78.58
2019-02-28T08:45:37.619Z,78.99
2019-02-28T08:46:37.608Z,78.47
2019-02-28T08:47:37.605Z,78.27
2019-02-28T08:48:37.589Z,78.17
2019-02-28T08:49:42.155Z,78.89
2019-02-28T08:50:38.577Z,77.34
2019-02-28T08:51:37.551Z,78.03
2019-02-28T08:52:40.970Z,77.51
2019-02-28T08:53:37.531Z,77.51
2019-02-28T08:54:37.555Z,77.62
2019-02-28T08:55:38.400Z,77.51
2019-02-28T08:56:37.495Z,77.51
2019-02-28T08:57:37.492Z,77.31
2019-02-28T08:58:38.362Z,77.89
2019-02-28T08:59:37.471Z,77.68
2019-02-28T09:00:37.822Z,76.86
2019-02-28T09:01:40.170Z,76.25
2019-02-28T09:02:37.428Z,76.35
2019-02-28T09:03:37.418Z,76.45
2019-02-28T09:04:41.161Z,75.73
2019-02-28T09:05:38.414Z,76.35
2019-02-28T09:06:37.887Z,76.04
2019-02-28T09:07:37.373Z,76.00
2019-02-28T09:08:37.362Z,76.00
2019-02-28T09:09:37.353Z,75.21
2019-02-28T09:10:37.524Z,75.42
2019-02-28T09:11:37.354Z,76.00
2019-02-28T09:12:37.322Z,76.04
2019-02-28T09:13:39.951Z,75.80
2019-02-28T09:14:38.297Z,75.59
2019-02-28T09:15:37.284Z,75.59
2019-02-28T09:16:39.688Z,75.29
2019-02-28T09:17:37.877Z,75.66
2019-02-28T09:18:37.251Z,75.45
2019-02-28T09:19:37.239Z,75.35
2019-02-28T09:20:37.229Z,75.01
2019-02-28T09:21:37.223Z,75.21
2019-02-28T09:22:37.238Z,74.49
2019-02-28T09:23:37.747Z,74.19
2019-02-28T09:24:37.181Z,74.05
2019-02-28T09:25:37.171Z,73.95
2019-02-28T09:26:37.160Z,73.23
2019-02-28T09:27:38.777Z,72.31
2019-02-28T09:28:37.149Z,73.44
2019-02-28T09:29:37.134Z,73.02
2019-02-28T09:30:37.126Z,73.54
2019-02-28T09:31:39.052Z,73.33
2019-02-28T09:32:37.092Z,73.74
2019-02-28T09:33:37.078Z,72.61
2019-02-28T09:34:37.099Z,73.61
2019-02-28T09:35:37.072Z,72.78
2019-02-28T09:36:37.044Z,71.56
2019-02-28T09:37:37.036Z,72.20
2019-02-28T09:38:37.026Z,71.86
2019-02-28T09:39:37.013Z,71.86
2019-02-28T09:40:37.012Z,73.02
2019-02-28T09:41:40.198Z,71.59
2019-02-28T09:42:36.979Z,71.97
2019-02-28T09:43:36.968Z,71.69
2019-02-28T09:44:36.955Z,72.00
2019-02-28T09:45:39.844Z,71.90
2019-02-28T09:46:36.933Z,71.69
2019-02-28T09:47:36.930Z,72.00
2019-02-28T09:48:37.921Z,72.27
2019-02-28T09:49:36.905Z,72.78
2019-02-28T09:50:36.890Z,72.17
2019-02-28T09:51:36.888Z,71.73
2019-02-28T09:52:41.298Z,72.14
2019-02-28T09:53:36.857Z,71.59
2019-02-28T09:54:36.844Z,70.87
2019-02-28T09:55:36.856Z,70.57
2019-02-28T09:56:36.821Z,71.39
2019-02-28T09:57:36.815Z,69.75
2019-02-28T09:58:36.797Z,70.26
2019-02-28T09:59:37.816Z,69.44
2019-02-28T10:00:36.786Z,69.54
2019-02-28T10:01:36.761Z,68.62
2019-02-28T10:02:36.752Z,68.83
2019-02-28T10:03:36.739Z,68.93
2019-02-28T10:04:36.730Z,68.73
2019-02-28T10:05:39.036Z,69.24
2019-02-28T10:06:37.709Z,69.27
2019-02-28T10:07:36.696Z,69.47
2019-02-28T10:08:38.015Z,69.57
2019-02-28T10:09:36.674Z,69.17
2019-02-28T10:10:36.662Z,69.89
2019-02-28T10:11:36.691Z,69.68
2019-02-28T10:12:39.474Z,69.68
2019-02-28T10:13:37.628Z,68.76
2019-02-28T10:14:36.616Z,68.52
2019-02-28T10:15:38.738Z,69.13
2019-02-28T10:16:37.603Z,68.73
2019-02-28T10:17:36.611Z,68.73
2019-02-28T10:18:38.900Z,69.85
2019-02-28T10:19:43.878Z,69.34
2019-02-28T10:20:37.547Z,68.41
2019-02-28T10:21:39.488Z,68.21
2019-02-28T10:22:36.525Z,68.90
2019-02-28T10:23:36.543Z,68.90
2019-02-28T10:24:36.502Z,68.69
2019-02-28T10:25:41.020Z,68.18
2019-02-28T10:26:37.477Z,67.46
2019-02-28T10:27:36.467Z,66.95
2019-02-28T10:28:36.457Z,67.64
2019-02-28T10:29:38.511Z,67.84
2019-02-28T10:30:37.432Z,68.22
2019-02-28T10:31:38.472Z,66.89
2019-02-28T10:32:36.421Z,68.63
2019-02-28T10:33:36.402Z,67.60
2019-02-28T10:34:36.403Z,66.45
2019-02-28T10:35:37.563Z,66.86
2019-02-28T10:36:36.410Z,66.45
2019-02-28T10:37:36.358Z,65.94
2019-02-28T10:38:36.349Z,66.45
2019-02-28T10:39:36.332Z,64.81
2019-02-28T10:40:36.321Z,65.50
2019-02-28T10:41:36.313Z,65.40
2019-02-28T10:42:36.999Z,66.25
2019-02-28T10:43:36.299Z,66.31
2019-02-28T10:44:36.275Z,65.02
2019-02-28T10:45:41.262Z,66.42
2019-02-28T10:46:37.252Z,66.42
2019-02-28T10:47:36.263Z,65.40
2019-02-28T10:48:41.879Z,64.58
2019-02-28T10:49:37.220Z,64.61
2019-02-28T10:50:36.211Z,64.48
2019-02-28T10:51:36.196Z,66.01
2019-02-28T10:52:36.213Z,65.70
2019-02-28T10:53:39.001Z,64.68
2019-02-28T10:54:36.165Z,66.11
2019-02-28T10:55:36.153Z,64.78
2019-02-28T10:56:36.140Z,64.75
2019-02-28T10:57:37.198Z,64.27
2019-02-28T10:58:36.132Z,63.53
2019-02-28T10:59:36.115Z,64.14
2019-02-28T11:00:36.094Z,62.81
2019-02-28T11:01:36.083Z,64.04
2019-02-28T11:02:36.075Z,63.63
2019-02-28T11:03:36.078Z,63.53
2019-02-28T11:04:36.060Z,63.02
2019-02-28T11:05:36.047Z,63.32
2019-02-28T11:06:36.028Z,63.60
2019-02-28T11:07:37.713Z,62.37
2019-02-28T11:08:36.042Z,62.68
2019-02-28T11:09:35.994Z,61.56
2019-02-28T11:10:36.314Z,62.48
2019-02-28T11:11:35.984Z,62.30
2019-02-28T11:12:35.962Z,62.27
2019-02-28T11:13:35.949Z,62.48
2019-02-28T11:14:38.661Z,61.76
2019-02-28T11:15:35.927Z,63.19
2019-02-28T11:16:36.177Z,62.48
2019-02-28T11:17:35.906Z,63.49
2019-02-28T11:18:36.497Z,62.24
2019-02-28T11:19:35.884Z,62.35
2019-02-28T11:20:35.882Z,62.55
2019-02-28T11:21:35.860Z,60.82
2019-02-28T11:22:36.565Z,61.71
2019-02-28T11:23:35.841Z,62.21
2019-02-28T11:24:35.837Z,62.11
2019-02-28T11:25:35.828Z,59.66
2019-02-28T11:26:35.818Z,60.17
2019-02-28T11:27:35.791Z,60.28
2019-02-28T11:28:35.782Z,60.86
2019-02-28T11:29:36.375Z,59.66
2019-02-28T11:30:36.200Z,60.89
2019-02-28T11:31:35.786Z,59.77
2019-02-28T11:32:35.742Z,60.86
2019-02-28T11:33:36.537Z,59.12
2019-02-28T11:34:35.722Z,59.23
2019-02-28T11:35:35.702Z,59.74
2019-02-28T11:36:35.691Z,59.20
2019-02-28T11:37:35.692Z,58.80
2019-02-28T11:38:35.682Z,57.98
2019-02-28T11:39:35.655Z,59.00
2019-02-28T11:40:35.645Z,59.30
2019-02-28T11:41:35.633Z,58.39
2019-02-28T11:42:35.634Z,57.98
2019-02-28T11:43:38.460Z,59.20
2019-02-28T11:44:35.615Z,59.61
2019-02-28T11:45:35.589Z,58.28
2019-02-28T11:46:36.557Z,58.36
2019-02-28T11:47:35.578Z,57.52
2019-02-28T11:48:35.571Z,58.23
2019-02-28T11:49:35.551Z,57.14
2019-02-28T11:50:41.235Z,58.03
2019-02-28T11:51:36.516Z,58.74
2019-02-28T11:52:35.523Z,57.04
2019-02-28T11:53:39.251Z,57.65
2019-02-28T11:54:35.487Z,57.85
2019-02-28T11:55:35.486Z,56.60
2019-02-28T11:56:35.470Z,57.82
2019-02-28T11:57:37.690Z,58.13
2019-02-28T11:58:36.441Z,58.44
2019-02-28T11:59:35.432Z,56.40
2019-02-28T12:00:36.567Z,58.13
2019-02-28T12:01:35.412Z,57.42
2019-02-28T12:02:35.403Z,57.11
2019-02-28T12:03:35.655Z,58.23
2019-02-28T12:04:37.405Z,57.31
2019-02-28T12:05:35.363Z,57.72
2019-02-28T12:06:35.350Z,57.42
2019-02-28T12:07:35.678Z,57.52
2019-02-28T12:08:35.335Z,57.11
2019-02-28T12:09:35.449Z,57.72
2019-02-28T12:10:35.322Z,58.23
2019-02-28T12:11:36.555Z,58.44
2019-02-28T12:12:35.281Z,58.92
2019-02-28T12:13:35.274Z,57.82
2019-02-28T12:14:35.265Z,58.23
2019-02-28T12:15:38.122Z,57.92
2019-02-28T12:16:35.355Z,58.13
2019-02-28T12:17:35.226Z,58.23
2019-02-28T12:18:39.489Z,57.82
2019-02-28T12:19:35.204Z,58.74
2019-02-28T12:20:35.201Z,58.44
2019-02-28T12:21:37.828Z,59.14
2019-02-28T12:22:35.207Z,59.12
2019-02-28T12:23:35.160Z,58.81
2019-02-28T12:24:35.148Z,59.53
2019-02-28T12:25:35.137Z,58.61
2019-02-28T12:26:35.132Z,58.07
2019-02-28T12:27:35.116Z,56.88
2019-02-28T12:28:37.976Z,56.77
2019-02-28T12:29:35.092Z,57.39
2019-02-28T12:30:35.081Z,57.42
2019-02-28T12:31:35.755Z,58.40
2019-02-28T12:32:35.064Z,58.20
2019-02-28T12:33:35.059Z,58.33
2019-02-28T12:34:35.033Z,58.81
2019-02-28T12:35:40.022Z,58.30
2019-02-28T12:36:36.008Z,58.71
2019-02-28T12:37:35.008Z,58.20
2019-02-28T12:38:35.014Z,59.32
2019-02-28T12:39:36.385Z,58.92
2019-02-28T12:40:34.977Z,57.21
2019-02-28T12:41:34.954Z,59.35
2019-02-28T12:42:35.371Z,57.69
2019-02-28T12:43:34.935Z,57.90
2019-02-28T12:44:34.945Z,58.20
2019-02-28T12:45:34.912Z,58.00
2019-02-28T12:46:34.908Z,57.79
2019-02-28T12:47:34.887Z,58.51
2019-02-28T12:48:34.877Z,57.59
2019-02-28T12:49:34.866Z,57.79
2019-02-28T12:50:34.859Z,57.59
2019-02-28T12:51:36.570Z,57.92
2019-02-28T12:52:34.830Z,56.77